sensor_id;sensor_type;location;lat;lon;timestamp;P1;durP1;ratioP1;P2;durP2;ratioP2
52972;SDS011;38837;48.916;2.336;2023-06-26T00:01:36;5.88;;;3.67;;
52972;SDS011;38837;48.916;2.336;2023-06-26T00:03:41;5.25;;;3.47;;
52972;SDS011;38837;48.916;2.336;2023-06-26T00:05:43;6.25;;;4.10;;
52972;SDS011;38837;48.916;2.336;2023-06-26T00:07:45;5.40;;;3.65;;
52972;SDS011;38837;48.916;2.336;2023-06-26T00:09:47;6.65;;;4.00;;
52972;SDS011;38837;48.916;2.336;2023-06-26T00:11:49;8.90;;;3.75;;
52972;SDS011;38837;48.916;2.336;2023-06-26T00:13:51;5.15;;;3.80;;
52972;SDS011;38837;48.916;2.336;2023-06-26T00:15:52;4.82;;;3.47;;
52972;SDS011;38837;48.916;2.336;2023-06-26T00:17:54;5.63;;;3.33;;
52972;SDS011;38837;48.916;2.336;2023-06-26T00:19:56;4.15;;;3.35;;
52972;SDS011;38837;48.916;2.336;2023-06-26T00:21:58;5.30;;;3.42;;
52972;SDS011;38837;48.916;2.336;2023-06-26T00:24:00;4.85;;;3.60;;
52972;SDS011;38837;48.916;2.336;2023-06-26T00:26:05;4.38;;;3.30;;
52972;SDS011;38837;48.916;2.336;2023-06-26T00:28:07;6.15;;;3.25;;
52972;SDS011;38837;48.916;2.336;2023-06-26T00:30:09;4.97;;;3.70;;
52972;SDS011;38837;48.916;2.336;2023-06-26T00:32:11;5.60;;;3.40;;
52972;SDS011;38837;48.916;2.336;2023-06-26T00:34:13;8.40;;;3.20;;
52972;SDS011;38837;48.916;2.336;2023-06-26T00:36:16;5.80;;;3.27;;
52972;SDS011;38837;48.916;2.336;2023-06-26T00:38:18;5.40;;;3.35;;
52972;SDS011;38837;48.916;2.336;2023-06-26T00:40:20;3.60;;;2.83;;
52972;SDS011;38837;48.916;2.336;2023-06-26T00:42:22;5.43;;;3.60;;
52972;SDS011;38837;48.916;2.336;2023-06-26T00:44:24;6.20;;;3.80;;
52972;SDS011;38837;48.916;2.336;2023-06-26T00:46:26;5.40;;;2.83;;
52972;SDS011;38837;48.916;2.336;2023-06-26T00:48:28;7.00;;;3.72;;
52972;SDS011;38837;48.916;2.336;2023-06-26T00:50:30;6.03;;;3.78;;
52972;SDS011;38837;48.916;2.336;2023-06-26T00:52:33;9.15;;;3.63;;
52972;SDS011;38837;48.916;2.336;2023-06-26T00:54:35;6.10;;;3.47;;
52972;SDS011;38837;48.916;2.336;2023-06-26T00:56:37;5.32;;;2.95;;
52972;SDS011;38837;48.916;2.336;2023-06-26T00:58:40;4.28;;;2.97;;
52972;SDS011;38837;48.916;2.336;2023-06-26T01:00:41;6.57;;;3.30;;
52972;SDS011;38837;48.916;2.336;2023-06-26T01:02:46;4.57;;;3.20;;
52972;SDS011;38837;48.916;2.336;2023-06-26T01:04:49;8.23;;;3.08;;
52972;SDS011;38837;48.916;2.336;2023-06-26T01:06:51;4.00;;;2.88;;
52972;SDS011;38837;48.916;2.336;2023-06-26T01:08:53;5.10;;;3.00;;
52972;SDS011;38837;48.916;2.336;2023-06-26T01:10:55;4.38;;;3.00;;
52972;SDS011;38837;48.916;2.336;2023-06-26T01:12:57;9.85;;;3.15;;
52972;SDS011;38837;48.916;2.336;2023-06-26T01:14:59;7.60;;;3.20;;
52972;SDS011;38837;48.916;2.336;2023-06-26T01:17:02;5.43;;;3.63;;
52972;SDS011;38837;48.916;2.336;2023-06-26T01:19:09;5.65;;;3.20;;
52972;SDS011;38837;48.916;2.336;2023-06-26T01:21:14;6.22;;;3.00;;
52972;SDS011;38837;48.916;2.336;2023-06-26T01:23:39;6.35;;;2.95;;
52972;SDS011;38837;48.916;2.336;2023-06-26T01:28:09;4.95;;;3.08;;
52972;SDS011;38837;48.916;2.336;2023-06-26T01:30:12;4.78;;;3.05;;
52972;SDS011;38837;48.916;2.336;2023-06-26T01:32:15;8.00;;;3.35;;
52972;SDS011;38837;48.916;2.336;2023-06-26T01:34:22;3.90;;;2.78;;
52972;SDS011;38837;48.916;2.336;2023-06-26T01:36:24;4.18;;;2.75;;
52972;SDS011;38837;48.916;2.336;2023-06-26T01:38:27;6.57;;;3.65;;
52972;SDS011;38837;48.916;2.336;2023-06-26T01:40:29;6.13;;;3.00;;
52972;SDS011;38837;48.916;2.336;2023-06-26T01:42:34;4.57;;;3.13;;
52972;SDS011;38837;48.916;2.336;2023-06-26T01:44:37;6.20;;;3.28;;
52972;SDS011;38837;48.916;2.336;2023-06-26T01:46:59;4.25;;;2.83;;
52972;SDS011;38837;48.916;2.336;2023-06-26T01:49:07;6.15;;;3.22;;
52972;SDS011;38837;48.916;2.336;2023-06-26T01:54:09;4.00;;;2.83;;
52972;SDS011;38837;48.916;2.336;2023-06-26T01:56:15;5.53;;;3.00;;
52972;SDS011;38837;48.916;2.336;2023-06-26T01:58:21;2.90;;;2.28;;
52972;SDS011;38837;48.916;2.336;2023-06-26T02:00:25;5.22;;;2.75;;
52972;SDS011;38837;48.916;2.336;2023-06-26T02:02:28;5.38;;;3.50;;
52972;SDS011;38837;48.916;2.336;2023-06-26T02:04:31;4.47;;;2.72;;
52972;SDS011;38837;48.916;2.336;2023-06-26T02:06:33;6.82;;;3.08;;
52972;SDS011;38837;48.916;2.336;2023-06-26T02:08:35;6.05;;;3.00;;
52972;SDS011;38837;48.916;2.336;2023-06-26T02:10:37;8.50;;;3.30;;
52972;SDS011;38837;48.916;2.336;2023-06-26T02:12:39;4.25;;;2.83;;
52972;SDS011;38837;48.916;2.336;2023-06-26T02:14:41;5.50;;;2.72;;
52972;SDS011;38837;48.916;2.336;2023-06-26T02:16:43;7.07;;;3.20;;
52972;SDS011;38837;48.916;2.336;2023-06-26T02:18:45;5.45;;;2.92;;
52972;SDS011;38837;48.916;2.336;2023-06-26T02:20:47;5.22;;;2.90;;
52972;SDS011;38837;48.916;2.336;2023-06-26T02:22:49;9.68;;;3.08;;
52972;SDS011;38837;48.916;2.336;2023-06-26T02:24:51;5.28;;;2.80;;
52972;SDS011;38837;48.916;2.336;2023-06-26T02:26:52;4.90;;;2.97;;
52972;SDS011;38837;48.916;2.336;2023-06-26T02:28:54;6.43;;;2.88;;
52972;SDS011;38837;48.916;2.336;2023-06-26T02:30:56;4.82;;;2.80;;
52972;SDS011;38837;48.916;2.336;2023-06-26T02:32:58;6.50;;;3.20;;
52972;SDS011;38837;48.916;2.336;2023-06-26T02:35:01;6.88;;;2.92;;
52972;SDS011;38837;48.916;2.336;2023-06-26T02:37:03;4.43;;;2.70;;
52972;SDS011;38837;48.916;2.336;2023-06-26T02:39:07;6.55;;;3.03;;
52972;SDS011;38837;48.916;2.336;2023-06-26T02:41:09;6.70;;;3.45;;
52972;SDS011;38837;48.916;2.336;2023-06-26T02:43:11;6.50;;;3.00;;
52972;SDS011;38837;48.916;2.336;2023-06-26T02:45:13;7.40;;;3.03;;
52972;SDS011;38837;48.916;2.336;2023-06-26T02:47:15;6.95;;;2.72;;
52972;SDS011;38837;48.916;2.336;2023-06-26T02:49:17;4.80;;;2.88;;
52972;SDS011;38837;48.916;2.336;2023-06-26T02:51:23;5.35;;;2.70;;
52972;SDS011;38837;48.916;2.336;2023-06-26T02:53:25;5.70;;;2.80;;
52972;SDS011;38837;48.916;2.336;2023-06-26T02:55:27;4.03;;;3.00;;
52972;SDS011;38837;48.916;2.336;2023-06-26T02:57:29;4.35;;;2.70;;
52972;SDS011;38837;48.916;2.336;2023-06-26T02:59:31;3.88;;;2.75;;
52972;SDS011;38837;48.916;2.336;2023-06-26T03:01:33;4.35;;;2.80;;
52972;SDS011;38837;48.916;2.336;2023-06-26T03:03:35;4.97;;;3.10;;
52972;SDS011;38837;48.916;2.336;2023-06-26T03:05:41;7.15;;;2.97;;
52972;SDS011;38837;48.916;2.336;2023-06-26T03:07:43;4.72;;;2.67;;
52972;SDS011;38837;48.916;2.336;2023-06-26T03:09:45;5.63;;;2.58;;
52972;SDS011;38837;48.916;2.336;2023-06-26T03:11:47;5.88;;;2.40;;
52972;SDS011;38837;48.916;2.336;2023-06-26T03:13:49;13.95;;;3.25;;
52972;SDS011;38837;48.916;2.336;2023-06-26T03:15:51;5.55;;;2.60;;
52972;SDS011;38837;48.916;2.336;2023-06-26T03:17:53;7.13;;;2.60;;
52972;SDS011;38837;48.916;2.336;2023-06-26T03:19:55;7.70;;;2.63;;
52972;SDS011;38837;48.916;2.336;2023-06-26T03:21:57;9.88;;;2.92;;
52972;SDS011;38837;48.916;2.336;2023-06-26T03:23:59;4.30;;;2.33;;
52972;SDS011;38837;48.916;2.336;2023-06-26T03:26:01;4.63;;;2.33;;
52972;SDS011;38837;48.916;2.336;2023-06-26T03:28:03;4.88;;;2.40;;
52972;SDS011;38837;48.916;2.336;2023-06-26T03:30:05;4.70;;;2.47;;
52972;SDS011;38837;48.916;2.336;2023-06-26T03:32:07;6.60;;;2.45;;
52972;SDS011;38837;48.916;2.336;2023-06-26T03:34:09;4.07;;;2.20;;
52972;SDS011;38837;48.916;2.336;2023-06-26T03:36:11;3.47;;;2.38;;
52972;SDS011;38837;48.916;2.336;2023-06-26T03:38:13;4.75;;;2.25;;
52972;SDS011;38837;48.916;2.336;2023-06-26T03:40:15;4.40;;;2.15;;
52972;SDS011;38837;48.916;2.336;2023-06-26T03:42:17;5.50;;;2.40;;
52972;SDS011;38837;48.916;2.336;2023-06-26T03:44:19;4.97;;;2.42;;
52972;SDS011;38837;48.916;2.336;2023-06-26T03:46:21;5.15;;;2.38;;
52972;SDS011;38837;48.916;2.336;2023-06-26T03:48:23;5.68;;;2.60;;
52972;SDS011;38837;48.916;2.336;2023-06-26T03:50:25;4.95;;;2.25;;
52972;SDS011;38837;48.916;2.336;2023-06-26T03:52:26;6.55;;;2.33;;
52972;SDS011;38837;48.916;2.336;2023-06-26T03:54:31;6.35;;;2.47;;
52972;SDS011;38837;48.916;2.336;2023-06-26T03:56:35;6.10;;;2.22;;
52972;SDS011;38837;48.916;2.336;2023-06-26T03:58:37;7.28;;;2.45;;
52972;SDS011;38837;48.916;2.336;2023-06-26T04:00:39;5.82;;;2.33;;
52972;SDS011;38837;48.916;2.336;2023-06-26T04:02:42;3.88;;;2.30;;
52972;SDS011;38837;48.916;2.336;2023-06-26T04:04:44;5.07;;;2.03;;
52972;SDS011;38837;48.916;2.336;2023-06-26T04:06:45;4.10;;;2.22;;
52972;SDS011;38837;48.916;2.336;2023-06-26T04:08:47;4.32;;;2.05;;
52972;SDS011;38837;48.916;2.336;2023-06-26T04:10:49;4.05;;;2.28;;
52972;SDS011;38837;48.916;2.336;2023-06-26T04:12:53;4.45;;;2.13;;
52972;SDS011;38837;48.916;2.336;2023-06-26T04:14:55;4.60;;;2.33;;
52972;SDS011;38837;48.916;2.336;2023-06-26T04:16:57;5.75;;;2.25;;
52972;SDS011;38837;48.916;2.336;2023-06-26T04:18:59;6.75;;;2.03;;
52972;SDS011;38837;48.916;2.336;2023-06-26T04:23:08;7.00;;;2.42;;
52972;SDS011;38837;48.916;2.336;2023-06-26T04:25:10;4.35;;;2.15;;
52972;SDS011;38837;48.916;2.336;2023-06-26T04:27:13;3.72;;;1.98;;
52972;SDS011;38837;48.916;2.336;2023-06-26T04:29:18;5.00;;;2.00;;
52972;SDS011;38837;48.916;2.336;2023-06-26T04:31:20;4.50;;;2.17;;
52972;SDS011;38837;48.916;2.336;2023-06-26T04:33:23;3.00;;;1.57;;
52972;SDS011;38837;48.916;2.336;2023-06-26T04:35:26;4.55;;;2.15;;
52972;SDS011;38837;48.916;2.336;2023-06-26T04:37:28;5.03;;;2.20;;
52972;SDS011;38837;48.916;2.336;2023-06-26T04:39:30;4.22;;;1.52;;
52972;SDS011;38837;48.916;2.336;2023-06-26T04:41:32;8.13;;;2.42;;
52972;SDS011;38837;48.916;2.336;2023-06-26T04:43:34;3.63;;;1.83;;
52972;SDS011;38837;48.916;2.336;2023-06-26T04:45:36;4.20;;;2.15;;
52972;SDS011;38837;48.916;2.336;2023-06-26T04:47:38;6.10;;;1.83;;
52972;SDS011;38837;48.916;2.336;2023-06-26T04:49:41;6.68;;;2.08;;
52972;SDS011;38837;48.916;2.336;2023-06-26T04:51:47;4.30;;;1.90;;
52972;SDS011;38837;48.916;2.336;2023-06-26T04:53:50;5.50;;;2.10;;
52972;SDS011;38837;48.916;2.336;2023-06-26T04:55:52;5.85;;;1.88;;
52972;SDS011;38837;48.916;2.336;2023-06-26T04:57:54;5.47;;;2.28;;
52972;SDS011;38837;48.916;2.336;2023-06-26T04:59:56;4.45;;;1.92;;
52972;SDS011;38837;48.916;2.336;2023-06-26T05:01:58;6.25;;;2.00;;
52972;SDS011;38837;48.916;2.336;2023-06-26T05:04:00;4.15;;;2.20;;
52972;SDS011;38837;48.916;2.336;2023-06-26T05:06:02;3.83;;;1.90;;
52972;SDS011;38837;48.916;2.336;2023-06-26T05:10:30;5.32;;;2.30;;
52972;SDS011;38837;48.916;2.336;2023-06-26T05:12:31;5.20;;;2.15;;
52972;SDS011;38837;48.916;2.336;2023-06-26T05:14:33;4.35;;;1.98;;
52972;SDS011;38837;48.916;2.336;2023-06-26T05:16:35;4.90;;;2.13;;
52972;SDS011;38837;48.916;2.336;2023-06-26T05:18:37;6.00;;;2.08;;
52972;SDS011;38837;48.916;2.336;2023-06-26T05:20:39;3.58;;;1.70;;
52972;SDS011;38837;48.916;2.336;2023-06-26T05:22:42;4.80;;;2.00;;
52972;SDS011;38837;48.916;2.336;2023-06-26T05:24:45;3.47;;;2.20;;
52972;SDS011;38837;48.916;2.336;2023-06-26T05:26:48;4.22;;;2.17;;
52972;SDS011;38837;48.916;2.336;2023-06-26T05:28:51;4.47;;;2.20;;
52972;SDS011;38837;48.916;2.336;2023-06-26T05:30:53;4.82;;;2.15;;
52972;SDS011;38837;48.916;2.336;2023-06-26T05:32:56;3.08;;;1.70;;
52972;SDS011;38837;48.916;2.336;2023-06-26T05:35:02;7.93;;;2.63;;
52972;SDS011;38837;48.916;2.336;2023-06-26T05:37:06;5.60;;;2.30;;
52972;SDS011;38837;48.916;2.336;2023-06-26T05:39:09;4.18;;;1.88;;
52972;SDS011;38837;48.916;2.336;2023-06-26T05:41:11;4.43;;;1.88;;
52972;SDS011;38837;48.916;2.336;2023-06-26T05:43:13;3.92;;;2.22;;
52972;SDS011;38837;48.916;2.336;2023-06-26T05:45:15;4.60;;;2.22;;
52972;SDS011;38837;48.916;2.336;2023-06-26T05:47:17;4.75;;;2.42;;
52972;SDS011;38837;48.916;2.336;2023-06-26T05:49:19;3.97;;;2.15;;
52972;SDS011;38837;48.916;2.336;2023-06-26T05:51:21;4.10;;;1.77;;
52972;SDS011;38837;48.916;2.336;2023-06-26T05:53:24;4.93;;;1.90;;
52972;SDS011;38837;48.916;2.336;2023-06-26T05:55:26;3.42;;;1.90;;
52972;SDS011;38837;48.916;2.336;2023-06-26T05:57:28;4.95;;;2.13;;
52972;SDS011;38837;48.916;2.336;2023-06-26T05:59:32;3.75;;;1.88;;
52972;SDS011;38837;48.916;2.336;2023-06-26T06:01:34;4.57;;;2.13;;
52972;SDS011;38837;48.916;2.336;2023-06-26T06:03:36;3.13;;;1.85;;
52972;SDS011;38837;48.916;2.336;2023-06-26T06:05:40;6.10;;;1.60;;
52972;SDS011;38837;48.916;2.336;2023-06-26T06:07:42;4.40;;;2.08;;
52972;SDS011;38837;48.916;2.336;2023-06-26T06:09:43;4.90;;;1.98;;
52972;SDS011;38837;48.916;2.336;2023-06-26T06:11:45;3.75;;;2.15;;
52972;SDS011;38837;48.916;2.336;2023-06-26T06:13:47;3.95;;;2.60;;
52972;SDS011;38837;48.916;2.336;2023-06-26T06:15:49;3.88;;;1.92;;
52972;SDS011;38837;48.916;2.336;2023-06-26T06:17:51;4.07;;;2.22;;
52972;SDS011;38837;48.916;2.336;2023-06-26T06:19:53;4.20;;;2.25;;
52972;SDS011;38837;48.916;2.336;2023-06-26T06:21:55;4.18;;;2.15;;
52972;SDS011;38837;48.916;2.336;2023-06-26T06:23:56;6.30;;;2.78;;
52972;SDS011;38837;48.916;2.336;2023-06-26T06:25:58;3.87;;;2.00;;
52972;SDS011;38837;48.916;2.336;2023-06-26T06:28:00;5.53;;;2.15;;
52972;SDS011;38837;48.916;2.336;2023-06-26T06:30:02;5.82;;;2.20;;
52972;SDS011;38837;48.916;2.336;2023-06-26T06:32:07;4.38;;;2.17;;
52972;SDS011;38837;48.916;2.336;2023-06-26T06:34:09;4.78;;;2.25;;
52972;SDS011;38837;48.916;2.336;2023-06-26T06:36:11;5.00;;;2.35;;
52972;SDS011;38837;48.916;2.336;2023-06-26T06:38:13;4.15;;;2.00;;
52972;SDS011;38837;48.916;2.336;2023-06-26T06:40:15;4.95;;;2.35;;
52972;SDS011;38837;48.916;2.336;2023-06-26T06:42:17;6.82;;;2.85;;
52972;SDS011;38837;48.916;2.336;2023-06-26T06:44:19;4.90;;;2.28;;
52972;SDS011;38837;48.916;2.336;2023-06-26T06:46:22;6.37;;;2.77;;
52972;SDS011;38837;48.916;2.336;2023-06-26T06:48:24;3.78;;;2.10;;
52972;SDS011;38837;48.916;2.336;2023-06-26T06:50:26;3.03;;;2.03;;
52972;SDS011;38837;48.916;2.336;2023-06-26T06:52:28;5.32;;;2.58;;
52972;SDS011;38837;48.916;2.336;2023-06-26T06:54:30;4.95;;;2.70;;
52972;SDS011;38837;48.916;2.336;2023-06-26T06:56:31;6.25;;;2.90;;
52972;SDS011;38837;48.916;2.336;2023-06-26T06:58:33;3.83;;;2.30;;
52972;SDS011;38837;48.916;2.336;2023-06-26T07:00:37;6.10;;;2.58;;
52972;SDS011;38837;48.916;2.336;2023-06-26T07:02:39;6.32;;;2.58;;
52972;SDS011;38837;48.916;2.336;2023-06-26T07:04:43;6.00;;;2.83;;
52972;SDS011;38837;48.916;2.336;2023-06-26T07:06:45;6.50;;;2.83;;
52972;SDS011;38837;48.916;2.336;2023-06-26T07:08:47;6.60;;;3.00;;
52972;SDS011;38837;48.916;2.336;2023-06-26T07:10:49;6.43;;;2.65;;
52972;SDS011;38837;48.916;2.336;2023-06-26T07:12:51;5.47;;;3.00;;
52972;SDS011;38837;48.916;2.336;2023-06-26T07:14:52;5.32;;;2.60;;
52972;SDS011;38837;48.916;2.336;2023-06-26T07:16:55;6.00;;;2.40;;
52972;SDS011;38837;48.916;2.336;2023-06-26T07:18:57;2.42;;;2.03;;
52972;SDS011;38837;48.916;2.336;2023-06-26T07:20:59;7.50;;;2.80;;
52972;SDS011;38837;48.916;2.336;2023-06-26T07:23:01;4.82;;;2.25;;
52972;SDS011;38837;48.916;2.336;2023-06-26T07:25:02;7.53;;;2.67;;
52972;SDS011;38837;48.916;2.336;2023-06-26T07:27:06;5.47;;;2.40;;
52972;SDS011;38837;48.916;2.336;2023-06-26T07:29:08;6.15;;;2.50;;
52972;SDS011;38837;48.916;2.336;2023-06-26T07:31:09;5.32;;;2.47;;
52972;SDS011;38837;48.916;2.336;2023-06-26T07:33:11;8.43;;;3.20;;
52972;SDS011;38837;48.916;2.336;2023-06-26T07:35:13;6.90;;;2.47;;
52972;SDS011;38837;48.916;2.336;2023-06-26T07:37:16;4.40;;;2.30;;
52972;SDS011;38837;48.916;2.336;2023-06-26T07:39:18;7.28;;;2.65;;
52972;SDS011;38837;48.916;2.336;2023-06-26T07:41:24;9.18;;;3.60;;
52972;SDS011;38837;48.916;2.336;2023-06-26T07:43:26;8.05;;;2.92;;
52972;SDS011;38837;48.916;2.336;2023-06-26T07:45:28;6.28;;;2.85;;
52972;SDS011;38837;48.916;2.336;2023-06-26T07:47:29;8.32;;;3.42;;
52972;SDS011;38837;48.916;2.336;2023-06-26T07:49:31;10.77;;;2.80;;
52972;SDS011;38837;48.916;2.336;2023-06-26T07:51:33;7.45;;;2.75;;
52972;SDS011;38837;48.916;2.336;2023-06-26T07:53:35;7.03;;;2.70;;
52972;SDS011;38837;48.916;2.336;2023-06-26T07:55:37;5.10;;;2.83;;
52972;SDS011;38837;48.916;2.336;2023-06-26T07:57:39;6.85;;;3.20;;
52972;SDS011;38837;48.916;2.336;2023-06-26T07:59:41;6.75;;;2.92;;
52972;SDS011;38837;48.916;2.336;2023-06-26T08:01:43;8.43;;;2.88;;
52972;SDS011;38837;48.916;2.336;2023-06-26T08:03:45;10.25;;;2.97;;
52972;SDS011;38837;48.916;2.336;2023-06-26T08:05:47;5.50;;;2.58;;
52972;SDS011;38837;48.916;2.336;2023-06-26T08:07:49;5.55;;;2.75;;
52972;SDS011;38837;48.916;2.336;2023-06-26T08:09:51;4.65;;;2.40;;
52972;SDS011;38837;48.916;2.336;2023-06-26T08:11:53;5.85;;;2.70;;
52972;SDS011;38837;48.916;2.336;2023-06-26T08:13:56;6.53;;;2.70;;
52972;SDS011;38837;48.916;2.336;2023-06-26T08:15:58;7.03;;;3.28;;
52972;SDS011;38837;48.916;2.336;2023-06-26T08:18:00;5.35;;;2.38;;
52972;SDS011;38837;48.916;2.336;2023-06-26T08:20:02;8.63;;;2.25;;
52972;SDS011;38837;48.916;2.336;2023-06-26T08:22:05;4.88;;;2.42;;
52972;SDS011;38837;48.916;2.336;2023-06-26T08:24:07;4.32;;;2.72;;
52972;SDS011;38837;48.916;2.336;2023-06-26T08:26:09;5.03;;;2.20;;
52972;SDS011;38837;48.916;2.336;2023-06-26T08:28:10;7.57;;;2.92;;
52972;SDS011;38837;48.916;2.336;2023-06-26T08:30:12;5.32;;;2.58;;
52972;SDS011;38837;48.916;2.336;2023-06-26T08:32:14;6.30;;;2.70;;
52972;SDS011;38837;48.916;2.336;2023-06-26T08:34:16;6.95;;;3.13;;
52972;SDS011;38837;48.916;2.336;2023-06-26T08:36:18;5.07;;;2.63;;
52972;SDS011;38837;48.916;2.336;2023-06-26T08:38:20;7.07;;;2.45;;
52972;SDS011;38837;48.916;2.336;2023-06-26T08:40:22;7.03;;;2.53;;
52972;SDS011;38837;48.916;2.336;2023-06-26T08:42:25;6.30;;;2.50;;
52972;SDS011;38837;48.916;2.336;2023-06-26T08:44:27;4.22;;;2.63;;
52972;SDS011;38837;48.916;2.336;2023-06-26T08:46:29;7.95;;;3.05;;
52972;SDS011;38837;48.916;2.336;2023-06-26T08:48:32;6.22;;;3.08;;
52972;SDS011;38837;48.916;2.336;2023-06-26T08:50:35;6.40;;;2.10;;
52972;SDS011;38837;48.916;2.336;2023-06-26T08:52:43;5.40;;;2.50;;
52972;SDS011;38837;48.916;2.336;2023-06-26T08:54:55;6.45;;;2.47;;
52972;SDS011;38837;48.916;2.336;2023-06-26T08:56:59;5.45;;;2.22;;
52972;SDS011;38837;48.916;2.336;2023-06-26T08:59:01;6.13;;;3.13;;
52972;SDS011;38837;48.916;2.336;2023-06-26T09:01:04;6.13;;;2.40;;
52972;SDS011;38837;48.916;2.336;2023-06-26T09:03:07;4.20;;;2.07;;
52972;SDS011;38837;48.916;2.336;2023-06-26T09:05:09;4.07;;;2.47;;
52972;SDS011;38837;48.916;2.336;2023-06-26T09:07:12;6.03;;;2.45;;
52972;SDS011;38837;48.916;2.336;2023-06-26T09:09:14;3.90;;;2.35;;
52972;SDS011;38837;48.916;2.336;2023-06-26T09:11:16;6.15;;;2.35;;
52972;SDS011;38837;48.916;2.336;2023-06-26T09:13:18;4.82;;;2.63;;
52972;SDS011;38837;48.916;2.336;2023-06-26T09:15:42;4.65;;;2.40;;
52972;SDS011;38837;48.916;2.336;2023-06-26T09:17:45;5.97;;;2.35;;
52972;SDS011;38837;48.916;2.336;2023-06-26T09:21:51;3.08;;;2.03;;
52972;SDS011;38837;48.916;2.336;2023-06-26T09:23:53;5.93;;;2.40;;
52972;SDS011;38837;48.916;2.336;2023-06-26T09:25:56;4.03;;;2.50;;
52972;SDS011;38837;48.916;2.336;2023-06-26T09:27:58;5.95;;;2.60;;
52972;SDS011;38837;48.916;2.336;2023-06-26T09:30:01;6.60;;;2.50;;
52972;SDS011;38837;48.916;2.336;2023-06-26T09:32:08;4.40;;;2.33;;
52972;SDS011;38837;48.916;2.336;2023-06-26T09:34:10;4.25;;;2.17;;
52972;SDS011;38837;48.916;2.336;2023-06-26T09:36:19;4.93;;;2.63;;
52972;SDS011;38837;48.916;2.336;2023-06-26T09:38:26;5.70;;;2.53;;
52972;SDS011;38837;48.916;2.336;2023-06-26T09:40:28;5.07;;;2.40;;
52972;SDS011;38837;48.916;2.336;2023-06-26T09:42:30;4.72;;;2.40;;
52972;SDS011;38837;48.916;2.336;2023-06-26T09:44:32;4.80;;;2.22;;
52972;SDS011;38837;48.916;2.336;2023-06-26T09:46:34;6.30;;;2.50;;
52972;SDS011;38837;48.916;2.336;2023-06-26T09:48:36;3.28;;;2.25;;
52972;SDS011;38837;48.916;2.336;2023-06-26T09:50:39;4.97;;;2.13;;
52972;SDS011;38837;48.916;2.336;2023-06-26T09:53:08;4.00;;;2.22;;
52972;SDS011;38837;48.916;2.336;2023-06-26T09:55:11;3.40;;;2.15;;
52972;SDS011;38837;48.916;2.336;2023-06-26T09:57:14;4.55;;;2.55;;
52972;SDS011;38837;48.916;2.336;2023-06-26T09:59:18;6.10;;;2.33;;
52972;SDS011;38837;48.916;2.336;2023-06-26T10:01:19;4.25;;;1.98;;
52972;SDS011;38837;48.916;2.336;2023-06-26T10:03:22;2.83;;;2.03;;
52972;SDS011;38837;48.916;2.336;2023-06-26T10:05:24;2.95;;;1.80;;
52972;SDS011;38837;48.916;2.336;2023-06-26T10:07:26;5.32;;;2.20;;
52972;SDS011;38837;48.916;2.336;2023-06-26T10:09:28;3.08;;;1.90;;
52972;SDS011;38837;48.916;2.336;2023-06-26T10:11:43;4.28;;;2.10;;
52972;SDS011;38837;48.916;2.336;2023-06-26T10:13:51;3.53;;;1.85;;
52972;SDS011;38837;48.916;2.336;2023-06-26T10:18:25;3.92;;;1.90;;
52972;SDS011;38837;48.916;2.336;2023-06-26T10:20:28;2.72;;;2.00;;
52972;SDS011;38837;48.916;2.336;2023-06-26T10:22:33;3.53;;;2.00;;
52972;SDS011;38837;48.916;2.336;2023-06-26T10:24:39;3.22;;;1.95;;
52972;SDS011;38837;48.916;2.336;2023-06-26T10:26:44;4.13;;;1.90;;
52972;SDS011;38837;48.916;2.336;2023-06-26T10:28:47;3.22;;;1.85;;
52972;SDS011;38837;48.916;2.336;2023-06-26T10:30:53;7.57;;;2.42;;
52972;SDS011;38837;48.916;2.336;2023-06-26T10:32:56;3.15;;;1.90;;
52972;SDS011;38837;48.916;2.336;2023-06-26T10:34:59;3.78;;;1.98;;
52972;SDS011;38837;48.916;2.336;2023-06-26T10:37:04;4.30;;;1.92;;
52972;SDS011;38837;48.916;2.336;2023-06-26T10:39:06;4.88;;;2.30;;
52972;SDS011;38837;48.916;2.336;2023-06-26T10:41:12;6.03;;;2.05;;
52972;SDS011;38837;48.916;2.336;2023-06-26T10:43:16;3.40;;;1.83;;
52972;SDS011;38837;48.916;2.336;2023-06-26T10:45:20;3.80;;;1.58;;
52972;SDS011;38837;48.916;2.336;2023-06-26T10:49:35;3.28;;;1.65;;
52972;SDS011;38837;48.916;2.336;2023-06-26T10:51:38;3.70;;;1.92;;
52972;SDS011;38837;48.916;2.336;2023-06-26T10:53:56;5.97;;;1.80;;
52972;SDS011;38837;48.916;2.336;2023-06-26T10:56:00;5.47;;;2.00;;
52972;SDS011;38837;48.916;2.336;2023-06-26T11:00:32;2.90;;;1.90;;
52972;SDS011;38837;48.916;2.336;2023-06-26T11:02:47;3.67;;;1.65;;
52972;SDS011;38837;48.916;2.336;2023-06-26T11:04:52;3.97;;;2.05;;
52972;SDS011;38837;48.916;2.336;2023-06-26T11:06:54;2.63;;;1.75;;
52972;SDS011;38837;48.916;2.336;2023-06-26T11:09:23;4.93;;;2.22;;
52972;SDS011;38837;48.916;2.336;2023-06-26T11:12:08;4.68;;;1.98;;
52972;SDS011;38837;48.916;2.336;2023-06-26T11:13:53;3.63;;;2.20;;
52972;SDS011;38837;48.916;2.336;2023-06-26T11:15:56;3.40;;;2.05;;
52972;SDS011;38837;48.916;2.336;2023-06-26T11:17:58;3.85;;;1.88;;
52972;SDS011;38837;48.916;2.336;2023-06-26T11:20:00;3.88;;;1.70;;
52972;SDS011;38837;48.916;2.336;2023-06-26T11:22:05;4.10;;;1.88;;
52972;SDS011;38837;48.916;2.336;2023-06-26T11:24:07;6.97;;;2.25;;
52972;SDS011;38837;48.916;2.336;2023-06-26T11:26:17;6.07;;;2.15;;
52972;SDS011;38837;48.916;2.336;2023-06-26T11:28:22;4.45;;;2.08;;
52972;SDS011;38837;48.916;2.336;2023-06-26T11:30:24;3.75;;;1.67;;
52972;SDS011;38837;48.916;2.336;2023-06-26T11:32:27;6.05;;;2.30;;
52972;SDS011;38837;48.916;2.336;2023-06-26T11:34:34;3.70;;;1.80;;
52972;SDS011;38837;48.916;2.336;2023-06-26T11:36:36;4.15;;;1.88;;
52972;SDS011;38837;48.916;2.336;2023-06-26T11:38:39;2.45;;;1.88;;
52972;SDS011;38837;48.916;2.336;2023-06-26T11:40:41;3.05;;;1.75;;
52972;SDS011;38837;48.916;2.336;2023-06-26T11:42:44;6.68;;;2.17;;
52972;SDS011;38837;48.916;2.336;2023-06-26T11:44:46;4.05;;;2.10;;
52972;SDS011;38837;48.916;2.336;2023-06-26T11:46:51;2.38;;;1.77;;
52972;SDS011;38837;48.916;2.336;2023-06-26T11:48:55;3.55;;;1.80;;
52972;SDS011;38837;48.916;2.336;2023-06-26T11:50:58;6.75;;;2.17;;
52972;SDS011;38837;48.916;2.336;2023-06-26T11:53:00;3.53;;;2.10;;
52972;SDS011;38837;48.916;2.336;2023-06-26T11:55:03;4.30;;;1.98;;
52972;SDS011;38837;48.916;2.336;2023-06-26T11:57:05;6.72;;;2.45;;
52972;SDS011;38837;48.916;2.336;2023-06-26T11:59:09;4.35;;;1.92;;
52972;SDS011;38837;48.916;2.336;2023-06-26T12:01:15;2.83;;;1.98;;
52972;SDS011;38837;48.916;2.336;2023-06-26T12:03:17;3.33;;;2.10;;
52972;SDS011;38837;48.916;2.336;2023-06-26T12:05:19;5.47;;;2.33;;
52972;SDS011;38837;48.916;2.336;2023-06-26T12:07:22;4.65;;;1.92;;
52972;SDS011;38837;48.916;2.336;2023-06-26T12:09:24;5.90;;;2.10;;
52972;SDS011;38837;48.916;2.336;2023-06-26T12:11:27;3.85;;;1.83;;
52972;SDS011;38837;48.916;2.336;2023-06-26T12:13:31;6.10;;;2.47;;
52972;SDS011;38837;48.916;2.336;2023-06-26T12:15:34;4.18;;;1.98;;
52972;SDS011;38837;48.916;2.336;2023-06-26T12:17:39;7.20;;;2.38;;
52972;SDS011;38837;48.916;2.336;2023-06-26T12:19:45;4.28;;;2.40;;
52972;SDS011;38837;48.916;2.336;2023-06-26T12:21:52;2.80;;;1.90;;
52972;SDS011;38837;48.916;2.336;2023-06-26T12:24:00;2.85;;;1.90;;
52972;SDS011;38837;48.916;2.336;2023-06-26T12:26:18;5.70;;;2.22;;
52972;SDS011;38837;48.916;2.336;2023-06-26T12:28:20;3.45;;;2.00;;
52972;SDS011;38837;48.916;2.336;2023-06-26T12:30:22;3.90;;;2.05;;
52972;SDS011;38837;48.916;2.336;2023-06-26T12:32:24;3.05;;;2.03;;
52972;SDS011;38837;48.916;2.336;2023-06-26T12:34:33;4.15;;;1.83;;
52972;SDS011;38837;48.916;2.336;2023-06-26T12:36:39;5.53;;;2.00;;
52972;SDS011;38837;48.916;2.336;2023-06-26T12:38:46;4.47;;;1.90;;
52972;SDS011;38837;48.916;2.336;2023-06-26T12:40:50;4.13;;;2.10;;
52972;SDS011;38837;48.916;2.336;2023-06-26T12:42:52;3.75;;;2.17;;